sensor_id;sensor_type;location;lat;lon;timestamp;pressure;altitude;pressure_sealevel;temperature;humidity
74708;BME280;63360;50.104;8.074;2022-12-08T00:01:10;96671.38;;;1.54;100.00
74708;BME280;63360;50.104;8.074;2022-12-08T00:03:38;96674.44;;;1.56;100.00
74708;BME280;63360;50.104;8.074;2022-12-08T00:06:06;96669.06;;;1.53;100.00
74708;BME280;63360;50.104;8.074;2022-12-08T00:08:52;96660.09;;;1.50;100.00
74708;BME280;63360;50.104;8.074;2022-12-08T00:11:37;96669.03;;;1.63;100.00
74708;BME280;63360;50.104;8.074;2022-12-08T00:14:04;96669.56;;;1.60;100.00
74708;BME280;63360;50.104;8.074;2022-12-08T00:16:31;96665.72;;;1.57;100.00
74708;BME280;63360;50.104;8.074;2022-12-08T00:18:57;96648.81;;;1.56;100.00
74708;BME280;63360;50.104;8.074;2022-12-08T00:21:23;96654.69;;;1.62;100.00
74708;BME280;63360;50.104;8.074;2022-12-08T00:23:53;96650.09;;;1.59;100.00
74708;BME280;63360;50.104;8.074;2022-12-08T00:26:20;96661.88;;;1.65;100.00
74708;BME280;63360;50.104;8.074;2022-12-08T00:28:46;96652.91;;;1.57;100.00
74708;BME280;63360;50.104;8.074;2022-12-08T00:31:13;96647.78;;;1.67;100.00
74708;BME280;63360;50.104;8.074;2022-12-08T00:33:39;96654.66;;;1.72;100.00
74708;BME280;63360;50.104;8.074;2022-12-08T00:36:07;96639.84;;;1.59;100.00
74708;BME280;63360;50.104;8.074;2022-12-08T00:38:35;96649.81;;;1.65;100.00
74708;BME280;63360;50.104;8.074;2022-12-08T00:41:02;96657.50;;;1.65;100.00
74708;BME280;63360;50.104;8.074;2022-12-08T00:43:29;96630.56;;;1.68;100.00
74708;BME280;63360;50.104;8.074;2022-12-08T00:45:55;96647.22;;;1.70;100.00
74708;BME280;63360;50.104;8.074;2022-12-08T00:48:22;96634.19;;;1.62;100.00
74708;BME280;63360;50.104;8.074;2022-12-08T00:50:48;96632.13;;;1.64;100.00
74708;BME280;63360;50.104;8.074;2022-12-08T00:53:14;96629.56;;;1.64;100.00
74708;BME280;63360;50.104;8.074;2022-12-08T00:55:41;96644.16;;;1.73;100.00
74708;BME280;63360;50.104;8.074;2022-12-08T00:58:08;96629.28;;;1.70;100.00
74708;BME280;63360;50.104;8.074;2022-12-08T01:00:34;96628.53;;;1.70;100.00
74708;BME280;63360;50.104;8.074;2022-12-08T01:03:01;96624.44;;;1.69;100.00
74708;BME280;63360;50.104;8.074;2022-12-08T01:05:27;96619.03;;;1.70;100.00
74708;BME280;63360;50.104;8.074;2022-12-08T01:07:54;96621.34;;;1.72;100.00
74708;BME280;63360;50.104;8.074;2022-12-08T01:10:20;96627.00;;;1.69;100.00
74708;BME280;63360;50.104;8.074;2022-12-08T01:12:46;96631.59;;;1.72;100.00
74708;BME280;63360;50.104;8.074;2022-12-08T01:15:13;96630.06;;;1.71;100.00
74708;BME280;63360;50.104;8.074;2022-12-08T01:17:39;96625.19;;;1.74;100.00
74708;BME280;63360;50.104;8.074;2022-12-08T01:20:06;96636.22;;;1.75;100.00
74708;BME280;63360;50.104;8.074;2022-12-08T01:22:33;96625.44;;;1.78;100.00
74708;BME280;63360;50.104;8.074;2022-12-08T01:25:01;96625.66;;;1.81;100.00
74708;BME280;63360;50.104;8.074;2022-12-08T01:27:28;96620.31;;;1.73;100.00
74708;BME280;63360;50.104;8.074;2022-12-08T01:29:54;96616.22;;;1.72;100.00
74708;BME280;63360;50.104;8.074;2022-12-08T01:32:20;96623.88;;;1.77;100.00
74708;BME280;63360;50.104;8.074;2022-12-08T01:34:47;96610.81;;;1.73;100.00
74708;BME280;63360;50.104;8.074;2022-12-08T01:37:13;96620.81;;;1.75;100.00
74708;BME280;63360;50.104;8.074;2022-12-08T01:39:40;96628.25;;;1.76;100.00
74708;BME280;63360;50.104;8.074;2022-12-08T01:42:18;96614.16;;;1.69;100.00
74708;BME280;63360;50.104;8.074;2022-12-08T01:44:48;96621.34;;;1.72;100.00
74708;BME280;63360;50.104;8.074;2022-12-08T01:47:15;96615.47;;;1.66;100.00
74708;BME280;63360;50.104;8.074;2022-12-08T01:49:41;96617.78;;;1.63;100.00
74708;BME280;63360;50.104;8.074;2022-12-08T01:52:22;96616.78;;;1.54;100.00
74708;BME280;63360;50.104;8.074;2022-12-08T01:54:57;96613.47;;;1.48;100.00
74708;BME280;63360;50.104;8.074;2022-12-08T01:57:27;96599.38;;;1.46;100.00
74708;BME280;63360;50.104;8.074;2022-12-08T02:00:04;96607.06;;;1.41;100.00
74708;BME280;63360;50.104;8.074;2022-12-08T02:05:39;96598.84;;;1.39;100.00
74708;BME280;63360;50.104;8.074;2022-12-08T02:08:09;96582.22;;;1.31;100.00
74708;BME280;63360;50.104;8.074;2022-12-08T02:10:38;96587.84;;;1.33;100.00
74708;BME280;63360;50.104;8.074;2022-12-08T02:13:13;96597.59;;;1.36;100.00
74708;BME280;63360;50.104;8.074;2022-12-08T02:19:01;96584.81;;;1.21;100.00
74708;BME280;63360;50.104;8.074;2022-12-08T02:30:04;96584.34;;;1.09;100.00
74708;BME280;63360;50.104;8.074;2022-12-08T02:32:53;96576.63;;;1.04;100.00
74708;BME280;63360;50.104;8.074;2022-12-08T02:35:33;96576.91;;;1.02;100.00
74708;BME280;63360;50.104;8.074;2022-12-08T02:41:16;96566.91;;;1.06;100.00
74708;BME280;63360;50.104;8.074;2022-12-08T02:43:47;96556.94;;;0.94;100.00
74708;BME280;63360;50.104;8.074;2022-12-08T02:46:25;96561.53;;;0.97;100.00
74708;BME280;63360;50.104;8.074;2022-12-08T02:48:54;96562.84;;;0.95;100.00
74708;BME280;63360;50.104;8.074;2022-12-08T02:51:22;96549.78;;;0.86;100.00
74708;BME280;63360;50.104;8.074;2022-12-08T02:53:49;96554.38;;;0.84;100.00
74708;BME280;63360;50.104;8.074;2022-12-08T02:59:11;96562.06;;;0.89;100.00
74708;BME280;63360;50.104;8.074;2022-12-08T03:11:01;96547.72;;;0.88;100.00
74708;BME280;63360;50.104;8.074;2022-12-08T03:13:43;96539.78;;;0.90;100.00
74708;BME280;63360;50.104;8.074;2022-12-08T03:16:15;96542.88;;;0.82;100.00
74708;BME280;63360;50.104;8.074;2022-12-08T03:18:49;96540.31;;;0.87;100.00
74708;BME280;63360;50.104;8.074;2022-12-08T03:21:19;96543.38;;;0.79;100.00
74708;BME280;63360;50.104;8.074;2022-12-08T03:23:50;96541.09;;;0.82;100.00
74708;BME280;63360;50.104;8.074;2022-12-08T03:26:44;96541.59;;;0.79;100.00
74708;BME280;63360;50.104;8.074;2022-12-08T03:29:12;96522.66;;;0.75;100.00
74708;BME280;63360;50.104;8.074;2022-12-08T03:31:41;96535.72;;;0.79;100.00
74708;BME280;63360;50.104;8.074;2022-12-08T03:34:10;96520.38;;;0.69;100.00
74708;BME280;63360;50.104;8.074;2022-12-08T03:36:37;96520.09;;;0.75;100.00
74708;BME280;63360;50.104;8.074;2022-12-08T03:39:04;96518.56;;;0.74;100.00
74708;BME280;63360;50.104;8.074;2022-12-08T03:41:30;96507.56;;;0.69;100.00
74708;BME280;63360;50.104;8.074;2022-12-08T03:43:57;96508.34;;;0.69;100.00
74708;BME280;63360;50.104;8.074;2022-12-08T03:46:27;96508.56;;;0.73;100.00
74708;BME280;63360;50.104;8.074;2022-12-08T03:48:53;96522.41;;;0.77;100.00
74708;BME280;63360;50.104;8.074;2022-12-08T03:51:20;96509.34;;;0.73;100.00
74708;BME280;63360;50.104;8.074;2022-12-08T03:53:47;96501.66;;;0.73;100.00
74708;BME280;63360;50.104;8.074;2022-12-08T03:56:49;96513.69;;;0.83;100.00
74708;BME280;63360;50.104;8.074;2022-12-08T03:59:16;96495.03;;;0.77;100.00
74708;BME280;63360;50.104;8.074;2022-12-08T04:01:42;96499.88;;;0.79;100.00
74708;BME280;63360;50.104;8.074;2022-12-08T04:04:09;96503.97;;;0.85;100.00
74708;BME280;63360;50.104;8.074;2022-12-08T04:06:35;96496.53;;;0.78;100.00
74708;BME280;63360;50.104;8.074;2022-12-08T04:09:02;96499.84;;;0.94;100.00
74708;BME280;63360;50.104;8.074;2022-12-08T04:11:28;96500.34;;;0.91;100.00
74708;BME280;63360;50.104;8.074;2022-12-08T04:13:55;96500.63;;;0.89;100.00
74708;BME280;63360;50.104;8.074;2022-12-08T04:16:23;96494.22;;;0.92;100.00
74708;BME280;63360;50.104;8.074;2022-12-08T04:18:51;96493.94;;;0.88;100.00
74708;BME280;63360;50.104;8.074;2022-12-08T04:21:18;96486.03;;;0.85;100.00
74708;BME280;63360;50.104;8.074;2022-12-08T04:23:45;96498.31;;;0.93;100.00
74708;BME280;63360;50.104;8.074;2022-12-08T04:26:12;96498.03;;;0.94;100.00
74708;BME280;63360;50.104;8.074;2022-12-08T04:28:38;96488.06;;;0.98;100.00
74708;BME280;63360;50.104;8.074;2022-12-08T04:31:05;96480.13;;;0.89;100.00
74708;BME280;63360;50.104;8.074;2022-12-08T04:33:32;96486.00;;;1.00;100.00
74708;BME280;63360;50.104;8.074;2022-12-08T04:36:01;96479.59;;;0.97;100.00
74708;BME280;63360;50.104;8.074;2022-12-08T04:38:28;96480.59;;;1.01;100.00
74708;BME280;63360;50.104;8.074;2022-12-08T04:40:54;96487.78;;;1.04;100.00
74708;BME280;63360;50.104;8.074;2022-12-08T04:43:21;96491.88;;;1.05;100.00
74708;BME280;63360;50.104;8.074;2022-12-08T04:45:47;96486.00;;;1.05;100.00
74708;BME280;63360;50.104;8.074;2022-12-08T04:48:14;96493.91;;;1.13;100.00
74708;BME280;63360;50.104;8.074;2022-12-08T04:50:42;96486.47;;;1.12;100.00
74708;BME280;63360;50.104;8.074;2022-12-08T04:53:09;96484.19;;;1.10;100.00
74708;BME280;63360;50.104;8.074;2022-12-08T04:55:41;96480.84;;;1.10;100.00
74708;BME280;63360;50.104;8.074;2022-12-08T04:58:13;96484.47;;;1.09;100.00
74708;BME280;63360;50.104;8.074;2022-12-08T05:00:40;96468.56;;;1.02;100.00
74708;BME280;63360;50.104;8.074;2022-12-08T05:03:07;96472.94;;;1.06;100.00
74708;BME280;63360;50.104;8.074;2022-12-08T05:05:33;96466.28;;;1.00;100.00
74708;BME280;63360;50.104;8.074;2022-12-08T05:08:00;96461.94;;;1.01;100.00
74708;BME280;63360;50.104;8.074;2022-12-08T05:10:26;96478.81;;;1.07;100.00
74708;BME280;63360;50.104;8.074;2022-12-08T05:12:53;96464.75;;;0.99;100.00
74708;BME280;63360;50.104;8.074;2022-12-08T05:15:19;96465.50;;;1.05;100.00
74708;BME280;63360;50.104;8.074;2022-12-08T05:17:46;96472.91;;;1.11;100.00
74708;BME280;63360;50.104;8.074;2022-12-08T05:20:12;96457.81;;;1.10;100.00
74708;BME280;63360;50.104;8.074;2022-12-08T05:22:39;96450.63;;;1.12;100.00
74708;BME280;63360;50.104;8.074;2022-12-08T05:25:05;96457.50;;;1.27;100.00
74708;BME280;63360;50.104;8.074;2022-12-08T05:27:32;96455.19;;;1.25;100.00
74708;BME280;63360;50.104;8.074;2022-12-08T05:29:58;96457.47;;;1.32;100.00
74708;BME280;63360;50.104;8.074;2022-12-08T05:32:24;96444.66;;;1.32;100.00
74708;BME280;63360;50.104;8.074;2022-12-08T05:34:51;96451.81;;;1.35;100.00
74708;BME280;63360;50.104;8.074;2022-12-08T05:37:18;96438.00;;;1.31;100.00
74708;BME280;63360;50.104;8.074;2022-12-08T05:39:44;96451.53;;;1.41;100.00
74708;BME280;63360;50.104;8.074;2022-12-08T05:42:10;96451.31;;;1.38;100.00
74708;BME280;63360;50.104;8.074;2022-12-08T05:44:37;96437.72;;;1.37;100.00
74708;BME280;63360;50.104;8.074;2022-12-08T05:47:03;96452.06;;;1.33;100.00
74708;BME280;63360;50.104;8.074;2022-12-08T05:49:29;96451.03;;;1.39;100.00
74708;BME280;63360;50.104;8.074;2022-12-08T05:51:56;96452.63;;;1.30;100.00
74708;BME280;63360;50.104;8.074;2022-12-08T05:54:22;96453.28;;;1.51;100.00
74708;BME280;63360;50.104;8.074;2022-12-08T05:56:49;96447.91;;;1.47;100.00
74708;BME280;63360;50.104;8.074;2022-12-08T05:59:15;96439.00;;;1.35;100.00
74708;BME280;63360;50.104;8.074;2022-12-08T06:01:41;96445.69;;;1.36;100.00
74708;BME280;63360;50.104;8.074;2022-12-08T06:04:08;96440.06;;;1.29;100.00
74708;BME280;63360;50.104;8.074;2022-12-08T06:06:35;96449.00;;;1.31;100.00
74708;BME280;63360;50.104;8.074;2022-12-08T06:09:03;96430.09;;;1.22;100.00
74708;BME280;63360;50.104;8.074;2022-12-08T06:11:30;96445.19;;;1.29;100.00
74708;BME280;63360;50.104;8.074;2022-12-08T06:13:58;96434.16;;;1.28;100.00
74708;BME280;63360;50.104;8.074;2022-12-08T06:16:25;96431.63;;;1.23;100.00
74708;BME280;63360;50.104;8.074;2022-12-08T06:18:53;96443.63;;;1.38;100.00
74708;BME280;63360;50.104;8.074;2022-12-08T06:21:20;96446.66;;;1.45;100.00
74708;BME280;63360;50.104;8.074;2022-12-08T06:23:48;96449.25;;;1.35;100.00
74708;BME280;63360;50.104;8.074;2022-12-08T06:26:16;96427.28;;;1.18;100.00
74708;BME280;63360;50.104;8.074;2022-12-08T06:28:43;96433.69;;;1.21;100.00
74708;BME280;63360;50.104;8.074;2022-12-08T06:31:16;96438.78;;;1.26;100.00
74708;BME280;63360;50.104;8.074;2022-12-08T06:33:44;96440.06;;;1.23;100.00
74708;BME280;63360;50.104;8.074;2022-12-08T06:36:12;96452.38;;;1.27;100.00
74708;BME280;63360;50.104;8.074;2022-12-08T06:38:39;96438.56;;;1.17;100.00
74708;BME280;63360;50.104;8.074;2022-12-08T06:41:10;96451.59;;;1.26;100.00
74708;BME280;63360;50.104;8.074;2022-12-08T06:43:37;96443.66;;;1.22;100.00
74708;BME280;63360;50.104;8.074;2022-12-08T06:46:09;96447.75;;;1.23;100.00
74708;BME280;63360;50.104;8.074;2022-12-08T06:48:36;96438.84;;;1.16;100.00
74708;BME280;63360;50.104;8.074;2022-12-08T06:51:11;96440.09;;;1.18;100.00
74708;BME280;63360;50.104;8.074;2022-12-08T06:53:39;96438.56;;;1.17;100.00
74708;BME280;63360;50.104;8.074;2022-12-08T06:56:06;96441.13;;;1.17;100.00
74708;BME280;63360;50.104;8.074;2022-12-08T06:58:33;96450.31;;;1.23;100.00
74708;BME280;63360;50.104;8.074;2022-12-08T07:01:05;96448.03;;;1.22;100.00
74708;BME280;63360;50.104;8.074;2022-12-08T07:03:32;96448.78;;;1.28;100.00
74708;BME280;63360;50.104;8.074;2022-12-08T07:05:59;96451.34;;;1.22;100.00
74708;BME280;63360;50.104;8.074;2022-12-08T07:08:30;96446.00;;;1.19;100.00
74708;BME280;63360;50.104;8.074;2022-12-08T07:10:56;96441.13;;;1.17;100.00
74708;BME280;63360;50.104;8.074;2022-12-08T07:13:23;96449.34;;;1.19;100.00
74708;BME280;63360;50.104;8.074;2022-12-08T07:15:49;96449.53;;;1.28;100.00
74708;BME280;63360;50.104;8.074;2022-12-08T07:18:16;96442.63;;;1.23;100.00
74708;BME280;63360;50.104;8.074;2022-12-08T07:20:42;96441.56;;;1.35;100.00
74708;BME280;63360;50.104;8.074;2022-12-08T07:23:08;96436.47;;;1.30;100.00
74708;BME280;63360;50.104;8.074;2022-12-08T07:25:35;96446.72;;;1.30;100.00
74708;BME280;63360;50.104;8.074;2022-12-08T07:28:06;96438.00;;;1.31;100.00
74708;BME280;63360;50.104;8.074;2022-12-08T07:30:33;96436.72;;;1.28;100.00
74708;BME280;63360;50.104;8.074;2022-12-08T07:33:01;96432.41;;;1.23;100.00
74708;BME280;63360;50.104;8.074;2022-12-08T07:35:27;96439.03;;;1.30;100.00
74708;BME280;63360;50.104;8.074;2022-12-08T07:37:54;96434.16;;;1.28;100.00
74708;BME280;63360;50.104;8.074;2022-12-08T07:40:20;96434.91;;;1.34;100.00
74708;BME280;63360;50.104;8.074;2022-12-08T07:42:46;96427.75;;;1.26;100.00
74708;BME280;63360;50.104;8.074;2022-12-08T07:45:13;96432.88;;;1.26;100.00
74708;BME280;63360;50.104;8.074;2022-12-08T07:47:39;96425.97;;;1.26;100.00
74708;BME280;63360;50.104;8.074;2022-12-08T07:50:06;96432.63;;;1.32;100.00
74708;BME280;63360;50.104;8.074;2022-12-08T07:52:34;96428.81;;;1.25;100.00
74708;BME280;63360;50.104;8.074;2022-12-08T07:55:00;96421.91;;;1.20;100.00
74708;BME280;63360;50.104;8.074;2022-12-08T07:57:27;96427.56;;;1.22;100.00
74708;BME280;63360;50.104;8.074;2022-12-08T07:59:53;96435.44;;;1.26;100.00
74708;BME280;63360;50.104;8.074;2022-12-08T08:02:20;96427.78;;;1.20;100.00
74708;BME280;63360;50.104;8.074;2022-12-08T08:04:51;96431.09;;;1.26;100.00
74708;BME280;63360;50.104;8.074;2022-12-08T08:07:18;96424.97;;;1.27;100.00
74708;BME280;63360;50.104;8.074;2022-12-08T08:09:44;96431.88;;;1.27;100.00
74708;BME280;63360;50.104;8.074;2022-12-08T08:12:11;96433.63;;;1.31;100.00
74708;BME280;63360;50.104;8.074;2022-12-08T08:14:57;96429.53;;;1.35;100.00
74708;BME280;63360;50.104;8.074;2022-12-08T08:17:23;96434.66;;;1.35;100.00
74708;BME280;63360;50.104;8.074;2022-12-08T08:19:50;96433.13;;;1.34;100.00
74708;BME280;63360;50.104;8.074;2022-12-08T08:22:16;96435.91;;;1.43;100.00
74708;BME280;63360;50.104;8.074;2022-12-08T08:24:42;96440.75;;;1.44;100.00
74708;BME280;63360;50.104;8.074;2022-12-08T08:27:10;96430.81;;;1.38;100.00
74708;BME280;63360;50.104;8.074;2022-12-08T08:29:37;96434.63;;;1.40;100.00
74708;BME280;63360;50.104;8.074;2022-12-08T08:32:03;96438.72;;;1.46;100.00
74708;BME280;63360;50.104;8.074;2022-12-08T08:34:29;96444.34;;;1.48;100.00
74708;BME280;63360;50.104;8.074;2022-12-08T08:36:56;96444.06;;;1.50;100.00
74708;BME280;63360;50.104;8.074;2022-12-08T08:39:22;96435.13;;;1.42;100.00
74708;BME280;63360;50.104;8.074;2022-12-08T08:41:49;96449.41;;;1.58;100.00
74708;BME280;63360;50.104;8.074;2022-12-08T08:44:15;96454.28;;;1.55;100.00
74708;BME280;63360;50.104;8.074;2022-12-08T08:46:42;96462.19;;;1.63;100.00
74708;BME280;63360;50.104;8.074;2022-12-08T08:49:08;96458.66;;;1.54;100.00
74708;BME280;63360;50.104;8.074;2022-12-08T08:51:35;96440.94;;;1.58;100.00
74708;BME280;63360;50.104;8.074;2022-12-08T08:54:01;96448.34;;;1.64;100.00
74708;BME280;63360;50.104;8.074;2022-12-08T08:56:28;96444.50;;;1.67;100.00
74708;BME280;63360;50.104;8.074;2022-12-08T08:58:54;96445.50;;;1.66;100.00
74708;BME280;63360;50.104;8.074;2022-12-08T09:01:25;96451.13;;;1.68;100.00
74708;BME280;63360;50.104;8.074;2022-12-08T09:03:52;96449.34;;;1.68;100.00
74708;BME280;63360;50.104;8.074;2022-12-08T09:06:19;96443.47;;;1.63;100.00
74708;BME280;63360;50.104;8.074;2022-12-08T09:08:46;96448.25;;;1.79;100.00
74708;BME280;63360;50.104;8.074;2022-12-08T09:11:13;96452.63;;;1.74;100.00
74708;BME280;63360;50.104;8.074;2022-12-08T09:13:39;96447.50;;;1.74;100.00
74708;BME280;63360;50.104;8.074;2022-12-08T09:16:07;96451.91;;;1.68;100.00
74708;BME280;63360;50.104;8.074;2022-12-08T09:18:34;96450.28;;;1.82;100.00
74708;BME280;63360;50.104;8.074;2022-12-08T09:21:08;96437.78;;;1.71;100.00
74708;BME280;63360;50.104;8.074;2022-12-08T09:23:36;96442.44;;;1.64;100.00
74708;BME280;63360;50.104;8.074;2022-12-08T09:26:03;96440.09;;;1.72;100.00
74708;BME280;63360;50.104;8.074;2022-12-08T09:28:31;96448.50;;;1.83;100.00
74708;BME280;63360;50.104;8.074;2022-12-08T09:30:58;96443.69;;;1.71;100.00
74708;BME280;63360;50.104;8.074;2022-12-08T09:33:24;96443.91;;;1.80;100.00
74708;BME280;63360;50.104;8.074;2022-12-08T09:35:51;96427.50;;;1.76;100.00
74708;BME280;63360;50.104;8.074;2022-12-08T09:38:17;96437.03;;;1.65;100.00
74708;BME280;63360;50.104;8.074;2022-12-08T09:40:52;96450.56;;;1.76;100.00
74708;BME280;63360;50.104;8.074;2022-12-08T09:46:09;96436.75;;;1.72;100.00
74708;BME280;63360;50.104;8.074;2022-12-08T09:48:59;96444.41;;;1.77;100.00
74708;BME280;63360;50.104;8.074;2022-12-08T09:51:32;96442.38;;;1.74;100.00
74708;BME280;63360;50.104;8.074;2022-12-08T09:54:07;96437.19;;;1.84;100.00
74708;BME280;63360;50.104;8.074;2022-12-08T09:56:38;96421.38;;;1.72;100.00
74708;BME280;63360;50.104;8.074;2022-12-08T10:01:35;96421.31;;;1.82;100.00
74708;BME280;63360;50.104;8.074;2022-12-08T10:04:25;96413.38;;;1.78;100.00
74708;BME280;63360;50.104;8.074;2022-12-08T10:07:37;96422.75;;;1.98;100.00
74708;BME280;63360;50.104;8.074;2022-12-08T10:10:18;96418.09;;;2.00;100.00
74708;BME280;63360;50.104;8.074;2022-12-08T10:12:54;96409.88;;;2.03;100.00
74708;BME280;63360;50.104;8.074;2022-12-08T10:15:34;96416.50;;;2.09;100.00
74708;BME280;63360;50.104;8.074;2022-12-08T10:18:10;96409.84;;;2.08;100.00
74708;BME280;63360;50.104;8.074;2022-12-08T10:20:40;96416.47;;;2.14;100.00
74708;BME280;63360;50.104;8.074;2022-12-08T10:23:35;96416.94;;;2.16;100.00
74708;BME280;63360;50.104;8.074;2022-12-08T10:26:05;96401.56;;;2.16;100.00
74708;BME280;63360;50.104;8.074;2022-12-08T10:28:32;96409.25;;;2.16;100.00
74708;BME280;63360;50.104;8.074;2022-12-08T10:31:04;96401.50;;;2.21;100.00
74708;BME280;63360;50.104;8.074;2022-12-08T10:33:32;96413.22;;;2.32;100.00
74708;BME280;63360;50.104;8.074;2022-12-08T10:35:59;96412.81;;;2.20;100.00
74708;BME280;63360;50.104;8.074;2022-12-08T10:38:33;96413.00;;;2.29;100.00
74708;BME280;63360;50.104;8.074;2022-12-08T10:41:12;96398.75;;;2.18;100.00
74708;BME280;63360;50.104;8.074;2022-12-08T10:43:53;96406.06;;;2.29;100.00
74708;BME280;63360;50.104;8.074;2022-12-08T10:46:22;96400.94;;;2.29;100.00
74708;BME280;63360;50.104;8.074;2022-12-08T10:49:10;96395.84;;;2.24;100.00
74708;BME280;63360;50.104;8.074;2022-12-08T10:51:39;96386.91;;;2.22;100.00
74708;BME280;63360;50.104;8.074;2022-12-08T10:54:32;96390.41;;;2.31;100.00
74708;BME280;63360;50.104;8.074;2022-12-08T10:56:58;96382.13;;;2.39;100.00
74708;BME280;63360;50.104;8.074;2022-12-08T10:59:25;96388.28;;;2.38;100.00
74708;BME280;63360;50.104;8.074;2022-12-08T11:01:54;96374.97;;;2.36;100.00
74708;BME280;63360;50.104;8.074;2022-12-08T11:04:29;96384.91;;;2.42;100.00
74708;BME280;63360;50.104;8.074;2022-12-08T11:06:57;96386.66;;;2.47;100.00
74708;BME280;63360;50.104;8.074;2022-12-08T11:09:40;96385.03;;;2.56;100.00
74708;BME280;63360;50.104;8.074;2022-12-08T11:12:13;96367.44;;;2.44;100.00
74708;BME280;63360;50.104;8.074;2022-12-08T11:22:42;96366.88;;;2.47;100.00
74708;BME280;63360;50.104;8.074;2022-12-08T11:25:18;96375.03;;;2.55;100.00
74708;BME280;63360;50.104;8.074;2022-12-08T11:27:48;96365.91;;;2.43;100.00
74708;BME280;63360;50.104;8.074;2022-12-08T11:30:24;96360.25;;;2.47;100.00
74708;BME280;63360;50.104;8.074;2022-12-08T11:33:01;96363.28;;;2.49;100.00
74708;BME280;63360;50.104;8.074;2022-12-08T11:35:38;96352.53;;;2.47;100.00
74708;BME280;63360;50.104;8.074;2022-12-08T11:38:18;96359.94;;;2.48;100.00
74708;BME280;63360;50.104;8.074;2022-12-08T11:40:56;96343.47;;;2.54;100.00
74708;BME280;63360;50.104;8.074;2022-12-08T11:46:10;96351.16;;;2.54;100.00
74708;BME280;63360;50.104;8.074;2022-12-08T11:49:02;96347.34;;;2.52;100.00
74708;BME280;63360;50.104;8.074;2022-12-08T11:51:49;96338.69;;;2.42;100.00
74708;BME280;63360;50.104;8.074;2022-12-08T11:54:34;96339.94;;;2.50;100.00
74708;BME280;63360;50.104;8.074;2022-12-08T11:57:04;96333.84;;;2.41;100.00
74708;BME280;63360;50.104;8.074;2022-12-08T11:59:36;96329.97;;;2.43;100.00
74708;BME280;63360;50.104;8.074;2022-12-08T12:02:13;96336.59;;;2.50;100.00
74708;BME280;63360;50.104;8.074;2022-12-08T12:04:49;96327.84;;;2.51;100.00
74708;BME280;63360;50.104;8.074;2022-12-08T12:07:35;96326.09;;;2.46;100.00
74708;BME280;63360;50.104;8.074;2022-12-08T12:13:19;96338.22;;;2.40;100.00
74708;BME280;63360;50.104;8.074;2022-12-08T12:19:14;96319.47;;;2.40;100.00
74708;BME280;63360;50.104;8.074;2022-12-08T12:21:44;96323.31;;;2.42;100.00
74708;BME280;63360;50.104;8.074;2022-12-08T12:24:30;96306.66;;;2.40;100.00
74708;BME280;63360;50.104;8.074;2022-12-08T12:27:06;96322.50;;;2.47;100.00
74708;BME280;63360;50.104;8.074;2022-12-08T12:29:46;96308.97;;;2.41;100.00
74708;BME280;63360;50.104;8.074;2022-12-08T12:32:20;96301.88;;;2.33;100.00
74708;BME280;63360;50.104;8.074;2022-12-08T12:34:53;96306.22;;;2.33;100.00
74708;BME280;63360;50.104;8.074;2022-12-08T12:37:23;96305.91;;;2.39;100.00
74708;BME280;63360;50.104;8.074;2022-12-08T12:42:38;96307.41;;;2.40;100.00
74708;BME280;63360;50.104;8.074;2022-12-08T12:53:02;96302.31;;;2.83;100.00
74708;BME280;63360;50.104;8.074;2022-12-08T12:55:57;96300.22;;;2.85;99.08
74708;BME280;63360;50.104;8.074;2022-12-08T13:03:40;96287.09;;;2.68;95.97
74708;BME280;63360;50.104;8.074;2022-12-08T13:06:09;96290.75;;;2.62;96.83
74708;BME280;63360;50.104;8.074;2022-12-08T13:08:49;96292.22;;;2.68;95.08
74708;BME280;63360;50.104;8.074;2022-12-08T13:11:17;96287.16;;;2.63;97.32
74708;BME280;63360;50.104;8.074;2022-12-08T13:13:56;96290.91;;;2.70;95.84
74708;BME280;63360;50.104;8.074;2022-12-08T13:16:25;96291.56;;;2.81;94.35
74708;BME280;63360;50.104;8.074;2022-12-08T13:18:57;96283.59;;;2.59;96.22
74708;BME280;63360;50.104;8.074;2022-12-08T13:21:31;96288.13;;;2.67;95.94
74708;BME280;63360;50.104;8.074;2022-12-08T13:26:44;96288.41;;;2.65;96.12
74708;BME280;63360;50.104;8.074;2022-12-08T13:29:23;96289.44;;;2.64;96.77
74708;BME280;63360;50.104;8.074;2022-12-08T13:31:55;96286.56;;;2.71;95.24
74708;BME280;63360;50.104;8.074;2022-12-08T13:34:38;96280.56;;;2.57;94.44
74708;BME280;63360;50.104;8.074;2022-12-08T13:44:54;96277.63;;;2.44;96.63
74708;BME280;63360;50.104;8.074;2022-12-08T13:48:03;96266.47;;;2.30;97.81
74708;BME280;63360;50.104;8.074;2022-12-08T13:51:13;96270.53;;;2.36;98.08
74708;BME280;63360;50.104;8.074;2022-12-08T13:54:17;96275.16;;;2.34;98.70
74708;BME280;63360;50.104;8.074;2022-12-08T13:57:07;96271.63;;;2.30;98.60
74708;BME280;63360;50.104;8.074;2022-12-08T13:59:44;96274.44;;;2.29;99.52
74708;BME280;63360;50.104;8.074;2022-12-08T14:02:23;96279.09;;;2.27;100.00
74708;BME280;63360;50.104;8.074;2022-12-08T14:04:53;96267.09;;;2.22;100.00
74708;BME280;63360;50.104;8.074;2022-12-08T14:07:40;96272.38;;;2.31;100.00
74708;BME280;63360;50.104;8.074;2022-12-08T14:10:20;96282.41;;;2.27;100.00
74708;BME280;63360;50.104;8.074;2022-12-08T14:12:52;96285.59;;;2.19;100.00
74708;BME280;63360;50.104;8.074;2022-12-08T14:15:21;96282.97;;;2.24;100.00
74708;BME280;63360;50.104;8.074;2022-12-08T14:17:55;96268.44;;;2.15;100.00
74708;BME280;63360;50.104;8.074;2022-12-08T14:22:53;96275.16;;;2.11;100.00
74708;BME280;63360;50.104;8.074;2022-12-08T14:25:21;96269.59;;;2.04;100.00
74708;BME280;63360;50.104;8.074;2022-12-08T14:27:49;96281.03;;;2.11;100.00
74708;BME280;63360;50.104;8.074;2022-12-08T14:30:19;96285.88;;;2.18;100.00
74708;BME280;63360;50.104;8.074;2022-12-08T14:32:56;96281.28;;;2.15;100.00
74708;BME280;63360;50.104;8.074;2022-12-08T14:38:13;96272.31;;;2.12;100.00
74708;BME280;63360;50.104;8.074;2022-12-08T14:40:44;96278.22;;;2.13;100.00
74708;BME280;63360;50.104;8.074;2022-12-08T14:43:19;96273.41;;;2.06;100.00